Time;durP1;ratioP1;P1;durP2;ratioP2;P2;SDS_P1;SDS_P2;PMS_P1;PMS_P2;Temp;Humidity;BMP_temperature;BMP_pressure;BME280_temperature;BME280_humidity;BME280_pressure;Samples;Min_cycle;Max_cycle;Signal;HPM_P1;HPM_P2
2021/06/08 00:01:25;;;;;;;30.40;20.40;;;;;;;14.70;100.00;97457.84;5025625;28;20052;-79
2021/06/08 00:03:51;;;;;;;32.00;20.98;;;;;;;14.66;100.00;97453.69;5025313;28;20026;-79
2021/06/08 00:06:16;;;;;;;29.80;21.65;;;;;;;14.64;100.00;97451.09;5045056;28;20515;-80
2021/06/08 00:08:42;;;;;;;32.88;21.85;;;;;;;14.62;100.00;97436.06;5045440;28;20016;-79
2021/06/08 00:11:07;;;;;;;32.83;21.40;;;;;;;14.59;100.00;97426.41;5045185;28;20505;-79
2021/06/08 00:13:33;;;;;;;34.58;21.58;;;;;;;14.69;100.00;97439.13;5045439;28;20104;-79
2021/06/08 00:15:59;;;;;;;30.23;20.95;;;;;;;14.79;100.00;97451.72;5045224;28;20025;-79
2021/06/08 00:18:24;;;;;;;38.08;22.13;;;;;;;14.75;100.00;97446.69;5028641;28;20112;-79
2021/06/08 00:20:50;;;;;;;33.80;22.77;;;;;;;14.23;100.00;97353.94;5045241;28;20129;-80
2021/06/08 00:23:16;;;;;;;34.85;22.25;;;;;;;14.69;100.00;97434.59;5025891;28;20025;-79
2021/06/08 00:25:41;;;;;;;31.50;21.23;;;;;;;14.60;100.00;97440.72;5041712;28;20483;-79
2021/06/08 00:28:09;;;;;;;31.05;21.60;;;;;;;14.53;100.00;97409.88;5038191;28;20039;-79
2021/06/08 00:30:35;;;;;;;29.13;20.52;;;;;;;14.61;100.00;97431.66;5025609;28;20044;-79
2021/06/08 00:33:01;;;;;;;31.42;21.80;;;;;;;14.37;100.00;97391.41;5036451;28;20028;-79
2021/06/08 00:35:27;;;;;;;34.53;23.00;;;;;;;14.63;100.00;97430.56;5033119;28;20392;-79
2021/06/08 00:37:54;;;;;;;30.35;20.40;;;;;;;14.51;100.00;97414.53;5025038;28;20124;-79
2021/06/08 00:40:19;;;;;;;31.20;22.35;;;;;;;14.63;100.00;97430.56;5024809;28;20107;-79
2021/06/08 00:42:45;;;;;;;31.15;20.85;;;;;;;14.30;100.00;97371.31;5041633;28;20125;-79
2021/06/08 00:45:11;;;;;;;32.47;23.45;;;;;;;14.59;100.00;97431.78;5060331;28;20029;-80
2021/06/08 00:47:37;;;;;;;30.70;22.45;;;;;;;14.51;100.00;97418.09;5062872;28;20040;-79
2021/06/08 00:50:03;;;;;;;36.90;22.80;;;;;;;14.60;100.00;97441.56;5044989;28;20063;-79
2021/06/08 00:52:29;;;;;;;30.40;21.38;;;;;;;14.54;100.00;97442.06;5045208;28;20025;-79
2021/06/08 00:54:54;;;;;;;29.67;21.30;;;;;;;14.37;100.00;97425.53;5044993;28;20055;-79
2021/06/08 00:57:20;;;;;;;31.92;21.75;;;;;;;14.24;100.00;97400.56;5044527;28;20086;-79
2021/06/08 00:59:46;;;;;;;31.85;21.77;;;;;;;14.25;100.00;97399.56;5044959;28;20032;-79
2021/06/08 01:02:11;;;;;;;34.50;22.83;;;;;;;14.26;100.00;97393.19;5052035;28;20389;-79
2021/06/08 01:04:37;;;;;;;32.92;20.92;;;;;;;14.26;100.00;97414.72;5041397;28;20081;-79
2021/06/08 01:07:03;;;;;;;38.95;21.15;;;;;;;14.22;100.00;97418.63;5017143;28;20480;-79
2021/06/08 01:09:28;;;;;;;29.50;20.10;;;;;;;14.27;100.00;97422.69;5049358;28;20500;-79
2021/06/08 01:11:54;;;;;;;27.65;19.55;;;;;;;14.31;100.00;97429.53;5039581;28;20090;-79
2021/06/08 01:14:19;;;;;;;33.63;20.83;;;;;;;14.28;100.00;97428.91;5026219;28;20032;-79
2021/06/08 01:16:45;;;;;;;32.67;20.95;;;;;;;14.27;100.00;97422.69;5041237;28;20044;-79
2021/06/08 01:19:10;;;;;;;34.53;19.55;;;;;;;14.11;100.00;97397.97;5041240;28;20037;-79
2021/06/08 01:21:36;;;;;;;28.77;20.00;;;;;;;14.12;100.00;97403.22;5044690;28;20060;-79
2021/06/08 01:24:03;;;;;;;29.17;19.70;;;;;;;14.24;100.00;97430.13;5044723;28;20411;-79
2021/06/08 01:26:29;;;;;;;26.95;20.10;;;;;;;13.91;100.00;97394.13;5041920;28;20059;-79
2021/06/08 01:28:58;;;;;;;33.42;20.90;;;;;;;13.98;100.00;97416.03;5024619;28;20389;-79
2021/06/08 01:31:26;;;;;;;32.63;21.48;;;;;;;14.12;100.00;97434.63;5026084;28;20037;-79
2021/06/08 01:33:52;;;;;;;32.58;20.95;;;;;;;13.95;100.00;97419.81;5056765;28;20110;-79
2021/06/08 01:36:23;;;;;;;32.03;20.67;;;;;;;14.04;100.00;97431.69;5059348;28;20492;-79
2021/06/08 01:38:51;;;;;;;39.58;21.52;;;;;;;14.03;100.00;97427.28;5022955;28;20400;-79
2021/06/08 01:41:26;;;;;;;29.90;20.77;;;;;;;13.93;100.00;97428.97;5044938;28;20028;-79
2021/06/08 01:43:53;;;;;;;31.70;22.05;;;;;;;13.72;100.00;97411.81;5051567;28;20068;-80
2021/06/08 01:46:20;;;;;;;40.03;22.73;;;;;;;13.73;100.00;97429.63;5045113;28;20025;-79
2021/06/08 01:48:47;;;;;;;33.78;22.70;;;;;;;13.51;100.00;97390.97;5048076;28;20020;-79
2021/06/08 01:51:23;;;;;;;33.65;21.50;;;;;;;13.66;100.00;97426.56;5048131;28;20023;-79
2021/06/08 01:54:13;;;;;;;39.60;21.10;;;;;;;13.58;100.00;97419.09;5049053;28;20025;-79
2021/06/08 01:56:40;;;;;;;32.80;20.48;;;;;;;13.47;100.00;97407.47;5057317;28;20483;-78
2021/06/08 01:59:15;;;;;;;35.03;21.23;;;;;;;13.29;100.00;97385.50;5047931;28;20108;-79
2021/06/08 02:01:56;;;;;;;33.38;21.63;;;;;;;13.38;100.00;97405.47;5065547;28;20059;-79
2021/06/08 02:04:26;;;;;;;32.53;20.95;;;;;;;13.43;100.00;97425.63;5065450;28;20498;-79
2021/06/08 02:07:09;;;;;;;41.25;23.98;;;;;;;13.40;100.00;97431.25;5044391;28;20032;-79
2021/06/08 02:09:52;;;;;;;40.17;23.75;;;;;;;13.35;100.00;97433.38;5046505;28;20025;-79
2021/06/08 02:12:20;;;;;;;34.85;22.50;;;;;;;13.28;100.00;97426.78;5065590;28;20032;-80
2021/06/08 02:15:01;;;;;;;38.60;23.60;;;;;;;13.39;100.00;97442.94;5039307;28;20020;-79
2021/06/08 02:17:37;;;;;;;37.20;22.63;;;;;;;13.34;100.00;97442.44;5046583;28;20036;-79
2021/06/08 02:20:11;;;;;;;34.20;22.38;;;;;;;13.20;100.00;97429.16;5044245;28;20017;-79
2021/06/08 02:22:39;;;;;;;38.90;23.40;;;;;;;13.02;100.00;97403.66;5045834;28;20025;-80
2021/06/08 02:25:06;;;;;;;43.25;24.00;;;;;;;13.19;100.00;97440.91;5033501;28;20099;-80
2021/06/08 02:27:33;;;;;;;32.60;22.30;;;;;;;13.26;100.00;97444.81;5028225;28;20029;-80
2021/06/08 02:29:59;;;;;;;40.70;22.30;;;;;;;13.14;100.00;97418.88;5034101;28;20059;-80
2021/06/08 02:32:25;;;;;;;36.22;23.63;;;;;;;13.05;100.00;97419.53;5044163;28;20029;-79
2021/06/08 02:34:51;;;;;;;35.65;22.23;;;;;;;13.10;100.00;97422.78;5047401;28;20028;-79
2021/06/08 02:37:19;;;;;;;38.95;23.58;;;;;;;13.06;100.00;97426.63;5047130;28;20127;-79
2021/06/08 02:39:45;;;;;;;32.38;22.60;;;;;;;13.02;100.00;97419.75;5044240;28;20044;-79
2021/06/08 02:42:16;;;;;;;38.35;22.33;;;;;;;13.17;100.00;97450.03;5027143;28;20461;-79
2021/06/08 02:44:42;;;;;;;39.20;22.23;;;;;;;13.12;100.00;97436.94;5029400;28;20036;-79
2021/06/08 02:47:07;;;;;;;37.78;23.55;;;;;;;13.06;100.00;97426.63;5047308;28;20024;-80
2021/06/08 02:49:34;;;;;;;39.88;22.58;;;;;;;13.04;100.00;97429.41;5037496;28;20480;-79
2021/06/08 02:52:00;;;;;;;33.72;22.52;;;;;;;13.16;100.00;97449.19;5052017;28;20460;-80
2021/06/08 02:54:26;;;;;;;37.58;22.55;;;;;;;12.89;100.00;97398.31;5043089;28;20032;-79
2021/06/08 02:56:52;;;;;;;43.40;22.33;;;;;;;13.18;100.00;97441.88;5038418;28;20070;-79
2021/06/08 02:59:18;;;;;;;40.40;22.92;;;;;;;13.10;100.00;97444.28;5040275;28;20020;-79
2021/06/08 03:01:50;;;;;;;35.05;23.50;;;;;;;13.16;100.00;97438.44;5018467;28;20517;-80
2021/06/08 03:04:18;;;;;;;36.22;22.50;;;;;;;13.25;100.00;97464.63;5019009;28;20514;-79
2021/06/08 03:06:48;;;;;;;41.83;23.83;;;;;;;13.23;100.00;97460.31;5043349;28;20398;-79
2021/06/08 03:09:16;;;;;;;43.90;23.83;;;;;;;12.99;100.00;97425.34;5018472;28;20025;-79
2021/06/08 03:11:46;;;;;;;34.03;22.00;;;;;;;13.17;100.00;97461.63;5018286;28;20056;-79
2021/06/08 03:14:13;;;;;;;37.97;21.38;;;;;;;13.00;100.00;97448.56;5018511;28;20036;-79
2021/06/08 03:16:44;;;;;;;38.65;23.25;;;;;;;13.19;100.00;97474.97;5018289;28;20037;-79
2021/06/08 03:19:11;;;;;;;37.92;22.63;;;;;;;13.22;100.00;97474.72;5018565;28;20559;-79
2021/06/08 03:21:42;;;;;;;43.20;24.23;;;;;;;13.22;100.00;97462.16;5038096;28;20040;-87
2021/06/08 03:24:12;;;;;;;49.92;24.55;;;;;;;13.27;100.00;97461.81;5025744;28;20032;-76
2021/06/08 03:26:38;;;;;;;50.75;24.60;;;;;;;13.18;100.00;97447.22;5035566;28;20032;-77
2021/06/08 03:29:07;;;;;;;43.58;26.02;;;;;;;13.39;100.00;97480.56;5051158;28;20021;-76
2021/06/08 03:31:35;;;;;;;44.95;26.38;;;;;;;13.49;100.00;97488.81;5051077;28;20024;-77
2021/06/08 03:34:00;;;;;;;61.42;26.65;;;;;;;13.46;100.00;97478.28;5034786;28;20029;-76
2021/06/08 03:36:26;;;;;;;47.63;25.15;;;;;;;13.44;100.00;97464.13;5041758;28;20107;-77
2021/06/08 03:38:52;;;;;;;51.67;24.35;;;;;;;13.50;100.00;97461.78;5027368;28;20116;-76
2021/06/08 03:41:19;;;;;;;40.53;24.63;;;;;;;13.66;100.00;97483.00;5018180;28;20539;-77
2021/06/08 03:43:45;;;;;;;35.35;21.17;;;;;;;13.72;100.00;97489.78;5042646;28;20024;-76
2021/06/08 03:46:11;;;;;;;31.17;19.88;;;;;;;13.55;100.00;97467.69;5034992;28;20032;-82
2021/06/08 03:48:36;;;;;;;24.88;17.85;;;;;;;13.66;100.00;97479.50;5019100;28;20143;-89
2021/06/08 03:51:03;;;;;;;33.33;19.05;;;;;;;13.73;100.00;97470.81;5018457;28;20052;-84
2021/06/08 03:53:28;;;;;;;33.75;18.83;;;;;;;13.83;100.00;97463.78;5018452;28;20033;-74
2021/06/08 03:55:54;;;;;;;30.92;18.35;;;;;;;13.97;100.00;97477.00;5055150;28;20033;-84
2021/06/08 03:58:20;;;;;;;28.40;17.90;;;;;;;13.86;100.00;97442.03;5068315;28;20028;-85
2021/06/08 04:00:55;;;;;;;28.42;17.52;;;;;;;13.82;100.00;97426.25;5049324;28;20009;-80
2021/06/08 04:03:22;;;;;;;24.55;18.13;;;;;;;14.15;100.00;97466.66;5017297;28;20032;-83
2021/06/08 04:05:48;;;;;;;31.17;18.65;;;;;;;14.26;100.00;97464.00;5039220;28;20028;-79
2021/06/08 04:08:14;;;;;;;29.13;17.58;;;;;;;14.56;100.00;97493.94;5014548;28;20400;-80
2021/06/08 04:10:40;;;;;;;32.47;19.05;;;;;;;14.22;100.00;97408.72;5014870;28;20617;-80
2021/06/08 04:13:07;;;;;;;37.25;21.15;;;;;;;14.64;100.00;97464.56;5014683;28;20481;-79
2021/06/08 04:15:33;;;;;;;36.20;19.20;;;;;;;14.79;100.00;97477.81;5031149;28;20056;-79
2021/06/08 04:18:09;;;;;;;34.17;21.05;;;;;;;15.02;100.00;97509.13;5031271;28;20040;-79
2021/06/08 04:20:34;;;;;;;29.30;19.27;;;;;;;15.00;100.00;97468.00;5015033;28;20040;-79
2021/06/08 04:23:01;;;;;;;42.38;20.92;;;;;;;15.25;100.00;97497.34;5037971;28;20419;-80
2021/06/08 04:25:28;;;;;;;33.88;20.48;;;;;;;15.36;100.00;97505.41;5032046;28;20036;-80
2021/06/08 04:27:54;;;;;;;35.33;19.60;;;;;;;15.58;100.00;97500.00;5029087;28;20032;-80
2021/06/08 04:30:20;;;;;;;40.08;21.30;;;;;;;15.53;100.00;97498.69;5048745;28;20040;-80
2021/06/08 04:32:47;;;;;;;26.50;19.10;;;;;;;15.66;100.00;97492.13;5031045;28;20024;-80
2021/06/08 04:35:14;;;;;;;33.45;19.15;;;;;;;15.97;100.00;97508.44;5048026;28;20369;-74
2021/06/08 04:37:39;;;;;;;43.05;19.27;;;;;;;16.05;100.00;97506.81;5021919;28;20511;-74
2021/06/08 04:40:08;;;;;;;29.77;18.20;;;;;;;16.24;100.00;97511.50;5068730;28;20040;-74
2021/06/08 04:42:34;;;;;;;33.63;17.48;;;;;;;16.41;100.00;97510.91;5032422;28;20024;-74
2021/06/08 04:44:59;;;;;;;32.53;18.27;;;;;;;16.72;100.00;97510.00;5030589;28;20464;-74
2021/06/08 04:47:25;;;;;;;23.05;17.55;;;;;;;17.14;100.00;97516.16;5035650;28;20056;-74
2021/06/08 04:49:51;;;;;;;30.08;16.63;;;;;;;19.09;91.84;97517.84;5042569;28;20024;-74
2021/06/08 04:52:17;;;;;;;27.25;15.48;;;;;;;20.90;79.24;97523.88;5016779;28;20059;-75
2021/06/08 04:54:43;;;;;;;18.85;15.00;;;;;;;20.28;80.03;97532.19;5032358;28;20476;-74
2021/06/08 04:57:11;;;;;;;19.05;14.75;;;;;;;19.96;80.97;97506.38;5035213;28;20037;-75
2021/06/08 04:59:42;;;;;;;23.02;16.80;;;;;;;19.72;83.82;97538.69;5053068;28;20036;-75
2021/06/08 05:02:12;;;;;;;32.50;18.05;;;;;;;19.87;84.23;97539.88;5042325;28;20079;-75
2021/06/08 05:04:39;;;;;;;23.15;15.55;;;;;;;20.40;80.27;97541.78;5033078;28;20697;-75
2021/06/08 05:07:07;;;;;;;22.65;14.68;;;;;;;20.93;77.84;97537.13;5032785;28;20037;-75
2021/06/08 05:09:38;;;;;;;23.40;16.05;;;;;;;20.90;76.74;97544.75;5033200;28;20025;-74
2021/06/08 05:12:05;;;;;;;21.05;13.52;;;;;;;20.50;77.39;97548.00;5033192;28;20025;-74
2021/06/08 05:14:32;;;;;;;25.45;14.73;;;;;;;20.30;78.30;97547.31;5017046;28;20028;-74
2021/06/08 05:16:58;;;;;;;22.33;14.75;;;;;;;20.25;79.17;97543.31;5045673;28;20040;-75
2021/06/08 05:19:24;;;;;;;23.45;14.88;;;;;;;20.42;77.44;97540.66;5040239;28;20554;-74
2021/06/08 05:21:50;;;;;;;18.83;14.52;;;;;;;20.74;77.02;97545.50;5057032;28;20032;-74
2021/06/08 05:24:16;;;;;;;22.35;14.73;;;;;;;20.81;75.51;97524.81;5056733;28;20028;-74
2021/06/08 05:26:44;;;;;;;20.00;13.38;;;;;;;21.41;73.25;97522.16;5074472;28;20095;-75
2021/06/08 05:29:10;;;;;;;26.30;13.90;;;;;;;21.89;71.29;97549.59;5046635;28;20029;-74
2021/06/08 05:31:36;;;;;;;15.65;12.48;;;;;;;22.51;68.41;97540.03;5036871;28;20075;-74
2021/06/08 05:34:03;;;;;;;19.80;12.10;;;;;;;22.68;66.93;97555.41;5044981;28;20032;-74
2021/06/08 05:36:33;;;;;;;21.98;12.63;;;;;;;23.09;66.59;97556.22;5036753;28;20067;-75
2021/06/08 05:38:59;;;;;;;20.25;12.90;;;;;;;21.96;69.86;97558.84;5036579;28;20492;-74
2021/06/08 05:41:27;;;;;;;15.93;12.55;;;;;;;22.76;67.34;97550.97;5066326;28;20039;-75
2021/06/08 05:43:52;;;;;;;18.98;12.43;;;;;;;23.19;66.16;97556.88;5049173;28;20029;-74
2021/06/08 05:46:18;;;;;;;15.63;12.13;;;;;;;23.25;65.73;97557.22;5036528;28;20041;-74
2021/06/08 05:48:44;;;;;;;17.40;12.90;;;;;;;23.42;65.14;97550.72;5060179;28;20031;-75
2021/06/08 05:51:10;;;;;;;19.58;12.02;;;;;;;24.26;62.16;97564.56;5046547;28;20025;-74
2021/06/08 05:53:40;;;;;;;12.85;10.77;;;;;;;24.56;60.59;97563.69;5059008;28;20032;-75
2021/06/08 05:56:07;;;;;;;18.60;12.35;;;;;;;24.31;61.40;97550.34;5047261;28;20032;-75
2021/06/08 05:58:33;;;;;;;24.05;14.50;;;;;;;24.44;61.35;97553.34;5036162;28;20094;-74
2021/06/08 06:01:00;;;;;;;22.30;12.75;;;;;;;24.44;60.89;97553.34;5036237;28;20097;-74
2021/06/08 06:03:28;;;;;;;19.33;14.60;;;;;;;24.85;59.52;97567.59;5035985;28;20488;-74
2021/06/08 06:05:55;;;;;;;17.00;13.15;;;;;;;26.15;56.45;97562.41;5036368;28;20025;-75
2021/06/08 06:08:21;;;;;;;23.60;14.45;;;;;;;28.21;49.54;97563.84;5035997;28;20028;-74
2021/06/08 06:10:47;;;;;;;16.50;12.25;;;;;;;28.23;48.03;97570.00;5044401;28;20056;-75
2021/06/08 06:13:27;;;;;;;22.75;15.00;;;;;;;28.75;47.38;97571.25;5053693;28;20063;-75
2021/06/08 06:15:53;;;;;;;14.85;10.75;;;;;;;29.89;43.46;97575.56;5059197;28;20055;-75
2021/06/08 06:18:19;;;;;;;20.65;11.48;;;;;;;30.65;42.55;97576.53;5052699;28;20028;-75
2021/06/08 06:20:55;;;;;;;17.55;11.77;;;;;;;30.79;40.84;97577.34;5049694;28;20067;-75
2021/06/08 06:23:22;;;;;;;21.98;15.45;;;;;;;31.41;39.96;97577.31;5039355;28;20496;-74
2021/06/08 06:25:50;;;;;;;23.88;9.95;;;;;;;31.40;39.84;97578.41;5055541;28;20036;-75
2021/06/08 06:28:16;;;;;;;13.85;9.35;;;;;;;33.09;37.44;97586.97;5038529;28;20046;-75
2021/06/08 06:30:42;;;;;;;17.70;9.82;;;;;;;34.44;34.65;97585.84;5055982;28;20078;-75
2021/06/08 06:33:08;;;;;;;31.90;10.88;;;;;;;33.74;35.11;97580.34;5055509;28;20036;-75
2021/06/08 06:35:34;;;;;;;15.23;9.60;;;;;;;33.15;35.94;97580.47;5061731;28;20485;-75
2021/06/08 06:38:03;;;;;;;11.65;9.02;;;;;;;34.28;34.66;97581.03;5061804;28;20045;-75
2021/06/08 06:40:30;;;;;;;18.33;9.20;;;;;;;34.50;34.60;97584.03;5038287;28;20036;-74
2021/06/08 06:43:05;;;;;;;10.43;9.23;;;;;;;34.09;33.83;97577.53;5055622;28;20057;-74
2021/06/08 06:45:35;;;;;;;10.57;8.80;;;;;;;34.88;32.97;97570.38;5053252;28;20504;-75
2021/06/08 06:48:02;;;;;;;17.58;10.70;;;;;;;35.77;31.99;97574.25;5051121;28;20103;-75
2021/06/08 06:50:39;;;;;;;15.70;8.73;;;;;;;35.69;32.00;97567.16;5052732;28;20024;-75
2021/06/08 06:53:05;;;;;;;11.50;7.82;;;;;;;35.26;31.94;97564.16;5069142;28;20062;-75
2021/06/08 06:55:32;;;;;;;10.07;7.18;;;;;;;34.91;31.30;97555.13;5044394;28;20458;-75
2021/06/08 06:57:58;;;;;;;16.40;6.85;;;;;;;35.59;29.24;97543.88;5035503;28;20033;-75
2021/06/08 07:00:26;;;;;;;8.73;6.78;;;;;;;35.33;30.74;97542.56;5054955;28;20037;-75
2021/06/08 07:02:53;;;;;;;13.85;7.70;;;;;;;35.65;30.25;97549.28;5041359;28;20033;-75
2021/06/08 07:05:22;;;;;;;10.63;8.27;;;;;;;34.88;31.77;97552.84;5035702;28;20113;-75
2021/06/08 07:07:48;;;;;;;8.98;7.30;;;;;;;34.28;32.62;97550.47;5068187;28;20032;-75
2021/06/08 07:10:16;;;;;;;12.70;7.85;;;;;;;34.82;32.41;97544.38;5043295;28;20036;-75
2021/06/08 07:12:43;;;;;;;11.85;8.88;;;;;;;35.64;31.91;97549.53;5056752;28;20029;-75
2021/06/08 07:15:10;;;;;;;15.57;8.43;;;;;;;35.58;31.98;97545.81;5038720;28;20090;-75
2021/06/08 07:17:37;;;;;;;14.45;8.07;;;;;;;36.47;30.22;97545.72;5045899;28;20060;-75
2021/06/08 07:20:04;;;;;;;8.90;6.43;;;;;;;36.62;28.60;97543.16;5023197;28;20056;-75
2021/06/08 07:22:31;;;;;;;11.43;7.07;;;;;;;35.83;30.01;97545.38;5020457;28;20029;-75
2021/06/08 07:24:57;;;;;;;8.82;6.95;;;;;;;36.56;29.48;97550.63;5054821;28;20025;-75
2021/06/08 07:27:23;;;;;;;7.43;6.25;;;;;;;34.49;31.48;97540.63;5053466;28;20024;-75
2021/06/08 07:29:50;;;;;;;8.20;6.10;;;;;;;33.91;33.06;97543.50;5034740;28;20097;-75
2021/06/08 07:32:25;;;;;;;13.55;7.00;;;;;;;31.57;36.63;97546.34;5051020;28;20547;-74
2021/06/08 07:35:21;;;;;;;9.50;6.95;;;;;;;30.32;39.32;97531.66;5054423;28;20082;-74
2021/06/08 07:37:49;;;;;;;13.85;7.47;;;;;;;29.84;39.53;97501.69;5071200;28;20075;-75
2021/06/08 07:40:19;;;;;;;10.15;9.02;;;;;;;29.57;41.40;97522.97;5046337;28;20020;-75
2021/06/08 07:42:52;;;;;;;14.93;7.88;;;;;;;29.43;41.83;97521.31;5046429;28;20094;-75
2021/06/08 07:45:31;;;;;;;21.17;9.27;;;;;;;29.79;41.31;97519.94;5046151;28;20087;-74
2021/06/08 07:47:58;;;;;;;8.52;7.05;;;;;;;29.74;40.68;97528.03;5065834;28;20070;-74
2021/06/08 07:50:31;;;;;;;12.57;7.00;;;;;;;29.48;40.15;97498.59;5053946;28;20066;-75
2021/06/08 07:52:58;;;;;;;10.48;6.03;;;;;;;29.01;41.01;97521.69;5058213;28;20444;-75
2021/06/08 07:55:23;;;;;;;14.30;6.20;;;;;;;29.39;40.87;97510.91;5017865;28;20029;-74
2021/06/08 07:57:49;;;;;;;16.05;6.28;;;;;;;32.27;37.31;97527.47;5037259;28;20020;-75
2021/06/08 08:00:16;;;;;;;8.30;5.78;;;;;;;33.86;33.47;97521.19;5064286;28;20029;-75
2021/06/08 08:02:42;;;;;;;7.18;5.80;;;;;;;34.42;32.96;97520.50;5045036;28;20028;-74
2021/06/08 08:05:15;;;;;;;7.97;5.93;;;;;;;35.20;31.63;97523.41;5053913;28;20031;-74
2021/06/08 08:07:41;;;;;;;10.65;5.80;;;;;;;35.35;30.81;97532.03;5063215;28;20025;-74
2021/06/08 08:10:07;;;;;;;8.30;5.07;;;;;;;36.39;28.57;97527.53;5039198;28;20057;-74
2021/06/08 08:12:39;;;;;;;5.47;4.60;;;;;;;36.67;28.02;97529.28;5059804;28;20454;-74
2021/06/08 08:15:06;;;;;;;10.25;4.70;;;;;;;36.67;28.38;97530.09;5048077;28;20028;-74
2021/06/08 08:17:32;;;;;;;8.48;4.70;;;;;;;37.32;27.57;97529.13;5036805;28;20025;-75
2021/06/08 08:19:59;;;;;;;8.52;4.75;;;;;;;38.04;27.87;97507.09;5048702;28;20029;-74
2021/06/08 08:22:24;;;;;;;8.75;5.45;;;;;;;37.79;27.45;97510.53;5033523;28;20024;-75
2021/06/08 08:24:50;;;;;;;9.13;5.28;;;;;;;37.18;27.51;97517.56;5051632;28;20044;-74
2021/06/08 08:27:16;;;;;;;5.75;4.72;;;;;;;36.26;28.01;97522.31;5040677;28;20021;-74
2021/06/08 08:29:44;;;;;;;8.35;4.65;;;;;;;35.06;30.14;97519.25;5036930;28;20036;-74
2021/06/08 08:32:10;;;;;;;8.15;4.50;;;;;;;35.71;29.60;97520.41;5045707;28;20421;-74
2021/06/08 08:34:38;;;;;;;10.82;5.40;;;;;;;34.69;30.74;97521.63;5053193;28;20081;-74
2021/06/08 08:37:03;;;;;;;7.10;4.50;;;;;;;35.65;29.64;97503.88;5039814;28;20143;-74
2021/06/08 08:39:30;;;;;;;9.75;4.28;;;;;;;36.04;29.64;97513.91;5033137;28;20212;-74
2021/06/08 08:41:55;;;;;;;7.68;4.57;;;;;;;36.59;28.31;97511.06;5055046;28;20118;-74
2021/06/08 08:44:21;;;;;;;6.75;5.15;;;;;;;37.52;27.57;97500.56;5045746;28;20017;-75
2021/06/08 08:46:47;;;;;;;5.28;4.05;;;;;;;37.32;26.80;97501.19;5050809;28;20028;-75
2021/06/08 08:49:12;;;;;;;12.95;4.45;;;;;;;37.82;26.28;97498.81;5032776;28;20025;-75
2021/06/08 08:51:38;;;;;;;10.52;5.25;;;;;;;37.91;25.42;97491.66;5068847;28;20032;-74
2021/06/08 08:54:05;;;;;;;7.53;4.13;;;;;;;36.97;26.63;97489.69;5048542;28;20134;-75
2021/06/08 08:56:33;;;;;;;5.07;4.57;;;;;;;37.42;26.42;97484.53;5033611;28;20377;-75
2021/06/08 08:59:10;;;;;;;11.85;6.78;;;;;;;38.39;27.00;97490.50;5023959;28;20095;-74
2021/06/08 09:01:37;;;;;;;11.20;6.75;;;;;;;38.93;24.50;97465.78;5042208;28;20465;-75
2021/06/08 09:04:05;;;;;;;4.65;4.22;;;;;;;38.82;24.74;97480.03;5052987;28;20466;-75
2021/06/08 09:06:30;;;;;;;5.97;4.18;;;;;;;39.16;25.15;97478.41;5044408;28;20179;-74
2021/06/08 09:08:56;;;;;;;6.30;3.80;;;;;;;38.64;25.61;97475.75;5032819;28;20108;-75
2021/06/08 09:11:22;;;;;;;8.68;4.75;;;;;;;38.75;27.47;97480.28;5050896;28;20028;-75
2021/06/08 09:13:47;;;;;;;9.77;4.90;;;;;;;38.78;25.48;97474.13;5035117;28;20036;-74
2021/06/08 09:16:16;;;;;;;8.52;4.00;;;;;;;39.19;24.87;97463.84;5038938;28;20021;-74
2021/06/08 09:18:43;;;;;;;5.07;4.20;;;;;;;38.93;25.14;97464.94;5042684;28;20037;-75
2021/06/08 09:21:21;;;;;;;13.60;4.28;;;;;;;38.02;25.92;97452.59;5062610;28;20016;-74
2021/06/08 09:23:47;;;;;;;20.85;5.50;;;;;;;36.98;27.98;97461.53;5068611;28;20052;-74
2021/06/08 09:26:16;;;;;;;9.80;4.50;;;;;;;36.22;29.27;97466.25;5038551;28;20169;-75
2021/06/08 09:28:43;;;;;;;7.68;4.38;;;;;;;35.04;29.89;97463.03;5028167;28;20029;-74
2021/06/08 09:31:24;;;;;;;8.18;4.70;;;;;;;33.98;32.96;97464.56;5052914;28;20021;-74
2021/06/08 09:33:52;;;;;;;17.85;4.32;;;;;;;33.46;33.43;97463.63;5025726;28;20105;-74
2021/06/08 09:36:22;;;;;;;7.55;4.68;;;;;;;32.52;34.16;97464.50;5041182;28;20480;-74
2021/06/08 09:39:01;;;;;;;5.57;4.65;;;;;;;31.55;35.89;97457.22;5040768;28;20028;-74
2021/06/08 09:41:50;;;;;;;9.57;5.15;;;;;;;30.87;36.82;97450.81;5032798;28;20028;-74
2021/06/08 09:44:20;;;;;;;6.47;5.70;;;;;;;30.25;39.25;97420.41;5040405;28;20032;-74
2021/06/08 09:46:47;;;;;;;10.15;5.05;;;;;;;29.31;41.99;97429.31;5035916;28;20415;-73
2021/06/08 09:49:15;;;;;;;8.70;5.20;;;;;;;29.11;42.71;97435.84;5062549;28;20396;-74
2021/06/08 09:51:53;;;;;;;13.00;4.72;;;;;;;29.10;43.39;97436.94;5052284;28;20035;-74
2021/06/08 09:54:32;;;;;;;13.27;5.05;;;;;;;30.41;39.51;97433.72;5064822;28;20040;-74
2021/06/08 09:57:23;;;;;;;4.82;4.22;;;;;;;31.85;34.54;97426.00;5051582;28;20037;-74
2021/06/08 09:59:55;;;;;;;10.50;5.45;;;;;;;31.65;35.99;97424.34;5052048;28;20051;-74
2021/06/08 10:02:43;;;;;;;5.45;4.47;;;;;;;32.21;35.09;97414.88;5072377;28;20502;-74
2021/06/08 10:05:29;;;;;;;4.70;4.25;;;;;;;31.81;35.98;97416.50;5074408;28;20032;-73
2021/06/08 10:08:00;;;;;;;4.32;3.92;;;;;;;31.34;37.68;97416.16;5053993;28;20035;-74
2021/06/08 10:10:35;;;;;;;9.48;6.43;;;;;;;30.81;38.54;97412.16;5062269;28;20028;-73
2021/06/08 10:13:06;;;;;;;9.50;5.82;;;;;;;30.49;39.37;97420.50;5062456;28;20037;-73
2021/06/08 10:16:10;;;;;;;5.95;4.28;;;;;;;29.58;40.12;97403.34;5026674;28;20048;-73
2021/06/08 10:18:48;;;;;;;5.00;4.50;;;;;;;28.97;40.89;97397.31;5043410;28;20032;-74
2021/06/08 10:21:14;;;;;;;5.55;4.00;;;;;;;28.61;41.57;97385.03;5069328;28;20029;-74
2021/06/08 10:23:40;;;;;;;4.72;3.88;;;;;;;28.47;41.60;97393.28;5036008;28;20413;-74
2021/06/08 10:26:07;;;;;;;14.07;4.53;;;;;;;28.55;42.57;97388.66;5070415;28;20507;-74
2021/06/08 10:28:34;;;;;;;5.55;4.30;;;;;;;28.81;40.54;97380.38;5060716;28;20040;-74
2021/06/08 10:31:00;;;;;;;9.93;5.45;;;;;;;30.90;38.30;97383.19;5065309;28;20032;-74
2021/06/08 10:33:27;;;;;;;12.18;4.78;;;;;;;33.17;33.63;97379.44;5041709;28;20048;-74
2021/06/08 10:35:54;;;;;;;30.27;4.82;;;;;;;34.94;30.51;97373.88;5035670;28;20052;-75
2021/06/08 10:38:21;;;;;;;5.88;3.70;;;;;;;37.02;27.96;97384.59;5048655;28;20142;-75
2021/06/08 10:40:53;;;;;;;19.60;4.38;;;;;;;38.21;27.36;97379.13;5056406;28;20035;-74
2021/06/08 10:43:29;;;;;;;4.40;3.90;;;;;;;38.06;26.11;97383.81;5053401;28;20040;-75
2021/06/08 10:45:56;;;;;;;3.92;3.53;;;;;;;38.26;26.00;97375.53;5053007;28;20036;-75
2021/06/08 10:48:38;;;;;;;7.47;3.85;;;;;;;36.97;27.32;97387.31;5073424;28;20031;-75
2021/06/08 10:51:08;;;;;;;4.65;3.78;;;;;;;35.87;29.00;97391.41;5056404;28;20449;-74
2021/06/08 10:53:36;;;;;;;4.93;3.35;;;;;;;35.64;27.57;97374.97;5073191;28;20051;-74
2021/06/08 10:56:03;;;;;;;6.75;3.60;;;;;;;33.52;30.51;97370.25;5055292;28;20032;-74
2021/06/08 10:58:52;;;;;;;10.48;3.55;;;;;;;34.62;29.97;97371.66;5054994;28;20043;-74
2021/06/08 11:04:10;;;;;;;4.82;3.60;;;;;;;36.29;28.53;97368.53;5064776;28;20034;-74
2021/06/08 11:06:51;;;;;;;5.03;3.90;;;;;;;35.52;28.36;97360.31;5055420;28;20013;-74
2021/06/08 11:09:23;;;;;;;5.63;3.70;;;;;;;34.80;29.22;97363.06;5027404;28;20025;-74
2021/06/08 11:11:51;;;;;;;5.32;4.38;;;;;;;33.50;31.64;97361.34;5069553;28;20499;-75
2021/06/08 11:17:21;;;;;;;5.70;4.50;;;;;;;31.23;36.43;97369.88;5064243;28;20044;-74
2021/06/08 11:19:49;;;;;;;4.93;4.50;;;;;;;30.48;37.57;97348.94;5054553;28;20400;-74
2021/06/08 11:22:20;;;;;;;9.95;4.28;;;;;;;29.17;41.36;97350.41;5043051;28;20025;-75
2021/06/08 11:24:49;;;;;;;5.18;4.15;;;;;;;28.62;41.78;97334.41;5060257;28;20063;-74
2021/06/08 11:27:15;;;;;;;7.20;4.95;;;;;;;28.09;43.71;97328.06;5054497;28;20055;-74
2021/06/08 11:29:54;;;;;;;6.35;5.05;;;;;;;28.07;43.91;97342.03;5072612;28;20480;-74
2021/06/08 11:32:29;;;;;;;5.57;4.20;;;;;;;27.49;45.53;97332.56;5054935;28;20028;-74